sensor_id;sensor_type;location;lat;lon;timestamp;P1;durP1;ratioP1;P2;durP2;ratioP2
19187;SDS011;9726;52.198;8.792;2024-03-06T00:00:15;81.73;;;39.50;;
19187;SDS011;9726;52.198;8.792;2024-03-06T00:02:43;77.50;;;40.10;;
19187;SDS011;9726;52.198;8.792;2024-03-06T00:05:10;81.47;;;39.73;;
19187;SDS011;9726;52.198;8.792;2024-03-06T00:07:37;68.57;;;37.80;;
19187;SDS011;9726;52.198;8.792;2024-03-06T00:10:04;68.67;;;36.13;;
19187;SDS011;9726;52.198;8.792;2024-03-06T00:12:32;73.57;;;37.47;;
19187;SDS011;9726;52.198;8.792;2024-03-06T00:14:59;73.07;;;37.83;;
19187;SDS011;9726;52.198;8.792;2024-03-06T00:17:27;69.23;;;37.03;;
19187;SDS011;9726;52.198;8.792;2024-03-06T00:19:54;84.40;;;39.83;;
19187;SDS011;9726;52.198;8.792;2024-03-06T00:22:21;60.70;;;33.03;;
19187;SDS011;9726;52.198;8.792;2024-03-06T00:24:50;63.77;;;35.33;;
19187;SDS011;9726;52.198;8.792;2024-03-06T00:27:17;70.87;;;34.13;;
19187;SDS011;9726;52.198;8.792;2024-03-06T00:29:45;67.63;;;31.77;;
19187;SDS011;9726;52.198;8.792;2024-03-06T00:32:12;62.43;;;32.27;;
19187;SDS011;9726;52.198;8.792;2024-03-06T00:34:39;61.80;;;33.73;;
19187;SDS011;9726;52.198;8.792;2024-03-06T00:37:06;66.33;;;32.87;;
19187;SDS011;9726;52.198;8.792;2024-03-06T00:39:33;67.57;;;31.53;;
19187;SDS011;9726;52.198;8.792;2024-03-06T00:42:01;63.17;;;30.73;;
19187;SDS011;9726;52.198;8.792;2024-03-06T00:44:29;51.83;;;29.90;;
19187;SDS011;9726;52.198;8.792;2024-03-06T00:46:56;52.00;;;29.13;;
19187;SDS011;9726;52.198;8.792;2024-03-06T00:49:24;64.73;;;29.10;;
19187;SDS011;9726;52.198;8.792;2024-03-06T00:51:51;51.63;;;28.87;;
19187;SDS011;9726;52.198;8.792;2024-03-06T00:54:18;50.77;;;27.77;;
19187;SDS011;9726;52.198;8.792;2024-03-06T00:56:45;57.53;;;28.20;;
19187;SDS011;9726;52.198;8.792;2024-03-06T00:59:12;59.50;;;28.80;;
19187;SDS011;9726;52.198;8.792;2024-03-06T01:01:40;61.60;;;29.23;;
19187;SDS011;9726;52.198;8.792;2024-03-06T01:04:08;49.40;;;29.23;;
19187;SDS011;9726;52.198;8.792;2024-03-06T01:06:35;51.50;;;27.50;;
19187;SDS011;9726;52.198;8.792;2024-03-06T01:09:02;53.77;;;26.93;;
19187;SDS011;9726;52.198;8.792;2024-03-06T01:11:29;51.50;;;27.20;;
19187;SDS011;9726;52.198;8.792;2024-03-06T01:13:56;48.90;;;25.40;;
19187;SDS011;9726;52.198;8.792;2024-03-06T01:16:23;51.57;;;25.30;;
19187;SDS011;9726;52.198;8.792;2024-03-06T01:18:50;58.70;;;26.37;;
19187;SDS011;9726;52.198;8.792;2024-03-06T01:21:17;56.47;;;26.30;;
19187;SDS011;9726;52.198;8.792;2024-03-06T01:23:44;50.90;;;24.50;;
19187;SDS011;9726;52.198;8.792;2024-03-06T01:26:12;57.70;;;24.63;;
19187;SDS011;9726;52.198;8.792;2024-03-06T01:28:39;55.77;;;25.53;;
19187;SDS011;9726;52.198;8.792;2024-03-06T01:31:06;50.70;;;25.97;;
19187;SDS011;9726;52.198;8.792;2024-03-06T01:33:34;50.00;;;23.93;;
19187;SDS011;9726;52.198;8.792;2024-03-06T01:36:01;45.77;;;22.93;;
19187;SDS011;9726;52.198;8.792;2024-03-06T01:38:28;49.13;;;22.73;;
19187;SDS011;9726;52.198;8.792;2024-03-06T01:40:55;41.93;;;23.03;;
19187;SDS011;9726;52.198;8.792;2024-03-06T01:43:23;46.30;;;22.20;;
19187;SDS011;9726;52.198;8.792;2024-03-06T01:45:52;40.07;;;22.10;;
19187;SDS011;9726;52.198;8.792;2024-03-06T01:48:21;44.50;;;22.43;;
19187;SDS011;9726;52.198;8.792;2024-03-06T01:50:53;48.17;;;22.80;;
19187;SDS011;9726;52.198;8.792;2024-03-06T01:53:22;45.67;;;21.50;;
19187;SDS011;9726;52.198;8.792;2024-03-06T01:55:51;45.30;;;22.67;;
19187;SDS011;9726;52.198;8.792;2024-03-06T01:58:18;44.00;;;23.73;;
19187;SDS011;9726;52.198;8.792;2024-03-06T02:00:49;44.33;;;21.47;;
19187;SDS011;9726;52.198;8.792;2024-03-06T02:03:17;48.50;;;23.47;;
19187;SDS011;9726;52.198;8.792;2024-03-06T02:05:47;44.47;;;23.30;;
19187;SDS011;9726;52.198;8.792;2024-03-06T02:08:16;48.47;;;23.40;;
19187;SDS011;9726;52.198;8.792;2024-03-06T02:10:44;46.30;;;22.70;;
19187;SDS011;9726;52.198;8.792;2024-03-06T02:13:13;48.27;;;22.63;;
19187;SDS011;9726;52.198;8.792;2024-03-06T02:15:41;46.23;;;23.07;;
19187;SDS011;9726;52.198;8.792;2024-03-06T02:18:08;52.70;;;23.03;;
19187;SDS011;9726;52.198;8.792;2024-03-06T02:20:39;52.27;;;23.10;;
19187;SDS011;9726;52.198;8.792;2024-03-06T02:23:07;48.07;;;22.87;;
19187;SDS011;9726;52.198;8.792;2024-03-06T02:25:35;47.40;;;23.43;;
19187;SDS011;9726;52.198;8.792;2024-03-06T02:28:03;42.73;;;23.70;;
19187;SDS011;9726;52.198;8.792;2024-03-06T02:30:30;47.63;;;26.40;;
19187;SDS011;9726;52.198;8.792;2024-03-06T02:33:03;55.60;;;25.13;;
19187;SDS011;9726;52.198;8.792;2024-03-06T02:35:31;52.70;;;25.93;;
19187;SDS011;9726;52.198;8.792;2024-03-06T02:37:59;53.47;;;27.27;;
19187;SDS011;9726;52.198;8.792;2024-03-06T02:40:26;56.90;;;26.90;;
19187;SDS011;9726;52.198;8.792;2024-03-06T02:42:53;50.50;;;25.70;;
19187;SDS011;9726;52.198;8.792;2024-03-06T02:45:20;58.97;;;26.87;;
19187;SDS011;9726;52.198;8.792;2024-03-06T02:47:47;49.30;;;26.33;;
19187;SDS011;9726;52.198;8.792;2024-03-06T02:50:14;45.00;;;23.97;;
19187;SDS011;9726;52.198;8.792;2024-03-06T02:52:41;51.83;;;25.60;;
19187;SDS011;9726;52.198;8.792;2024-03-06T02:55:08;52.47;;;27.87;;
19187;SDS011;9726;52.198;8.792;2024-03-06T02:57:36;57.53;;;28.77;;
19187;SDS011;9726;52.198;8.792;2024-03-06T03:00:03;48.87;;;25.80;;
19187;SDS011;9726;52.198;8.792;2024-03-06T03:02:31;49.53;;;25.33;;
19187;SDS011;9726;52.198;8.792;2024-03-06T03:04:58;55.50;;;26.33;;
19187;SDS011;9726;52.198;8.792;2024-03-06T03:07:25;57.47;;;25.43;;
19187;SDS011;9726;52.198;8.792;2024-03-06T03:09:52;49.43;;;26.30;;
19187;SDS011;9726;52.198;8.792;2024-03-06T03:12:19;50.53;;;27.17;;
19187;SDS011;9726;52.198;8.792;2024-03-06T03:14:46;48.77;;;25.83;;
19187;SDS011;9726;52.198;8.792;2024-03-06T03:17:13;49.53;;;27.10;;
19187;SDS011;9726;52.198;8.792;2024-03-06T03:19:42;50.47;;;25.43;;
19187;SDS011;9726;52.198;8.792;2024-03-06T03:22:09;50.43;;;25.47;;
19187;SDS011;9726;52.198;8.792;2024-03-06T03:24:36;49.30;;;24.43;;
19187;SDS011;9726;52.198;8.792;2024-03-06T03:27:03;53.17;;;25.57;;
19187;SDS011;9726;52.198;8.792;2024-03-06T03:29:30;50.53;;;25.60;;
19187;SDS011;9726;52.198;8.792;2024-03-06T03:31:57;45.87;;;26.27;;
19187;SDS011;9726;52.198;8.792;2024-03-06T03:34:24;47.23;;;25.50;;
19187;SDS011;9726;52.198;8.792;2024-03-06T03:36:51;57.37;;;25.93;;
19187;SDS011;9726;52.198;8.792;2024-03-06T03:39:18;44.63;;;25.53;;
19187;SDS011;9726;52.198;8.792;2024-03-06T03:41:48;44.60;;;23.30;;
19187;SDS011;9726;52.198;8.792;2024-03-06T03:44:16;48.00;;;24.63;;
19187;SDS011;9726;52.198;8.792;2024-03-06T03:46:47;49.40;;;26.30;;
19187;SDS011;9726;52.198;8.792;2024-03-06T03:49:14;52.17;;;24.53;;
19187;SDS011;9726;52.198;8.792;2024-03-06T03:51:41;50.23;;;26.37;;
19187;SDS011;9726;52.198;8.792;2024-03-06T03:54:08;47.93;;;24.47;;
19187;SDS011;9726;52.198;8.792;2024-03-06T03:56:35;52.90;;;25.23;;
19187;SDS011;9726;52.198;8.792;2024-03-06T03:59:02;57.53;;;26.43;;
19187;SDS011;9726;52.198;8.792;2024-03-06T04:01:30;46.73;;;24.83;;
19187;SDS011;9726;52.198;8.792;2024-03-06T04:03:57;53.93;;;25.97;;
19187;SDS011;9726;52.198;8.792;2024-03-06T04:06:24;52.13;;;26.77;;
19187;SDS011;9726;52.198;8.792;2024-03-06T04:08:51;50.43;;;25.17;;
19187;SDS011;9726;52.198;8.792;2024-03-06T04:11:18;58.77;;;25.20;;
19187;SDS011;9726;52.198;8.792;2024-03-06T04:13:46;47.93;;;25.00;;
19187;SDS011;9726;52.198;8.792;2024-03-06T04:16:16;42.03;;;23.97;;
19187;SDS011;9726;52.198;8.792;2024-03-06T04:18:46;47.73;;;24.10;;
19187;SDS011;9726;52.198;8.792;2024-03-06T04:21:13;50.00;;;23.33;;
19187;SDS011;9726;52.198;8.792;2024-03-06T04:23:43;49.60;;;24.10;;
19187;SDS011;9726;52.198;8.792;2024-03-06T04:26:10;50.57;;;24.93;;
19187;SDS011;9726;52.198;8.792;2024-03-06T04:28:38;51.17;;;24.33;;
19187;SDS011;9726;52.198;8.792;2024-03-06T04:31:05;52.77;;;25.83;;
19187;SDS011;9726;52.198;8.792;2024-03-06T04:33:32;48.63;;;24.13;;
19187;SDS011;9726;52.198;8.792;2024-03-06T04:36:03;56.67;;;25.17;;
19187;SDS011;9726;52.198;8.792;2024-03-06T04:38:33;56.00;;;25.23;;
19187;SDS011;9726;52.198;8.792;2024-03-06T04:41:00;55.43;;;24.27;;
19187;SDS011;9726;52.198;8.792;2024-03-06T04:43:28;52.43;;;26.07;;
19187;SDS011;9726;52.198;8.792;2024-03-06T04:45:55;44.30;;;23.70;;
19187;SDS011;9726;52.198;8.792;2024-03-06T04:48:22;56.43;;;26.03;;
19187;SDS011;9726;52.198;8.792;2024-03-06T04:50:49;47.87;;;25.17;;
19187;SDS011;9726;52.198;8.792;2024-03-06T04:53:16;49.43;;;25.10;;
19187;SDS011;9726;52.198;8.792;2024-03-06T04:55:44;53.90;;;25.37;;
19187;SDS011;9726;52.198;8.792;2024-03-06T04:58:11;54.93;;;26.03;;
19187;SDS011;9726;52.198;8.792;2024-03-06T05:00:38;51.20;;;26.33;;
19187;SDS011;9726;52.198;8.792;2024-03-06T05:03:06;56.73;;;25.00;;
19187;SDS011;9726;52.198;8.792;2024-03-06T05:05:50;49.00;;;24.27;;
19187;SDS011;9726;52.198;8.792;2024-03-06T05:08:35;48.13;;;25.23;;
19187;SDS011;9726;52.198;8.792;2024-03-06T05:11:20;56.10;;;25.83;;
19187;SDS011;9726;52.198;8.792;2024-03-06T05:14:04;48.97;;;25.83;;
19187;SDS011;9726;52.198;8.792;2024-03-06T05:16:48;41.23;;;24.37;;
19187;SDS011;9726;52.198;8.792;2024-03-06T05:19:33;44.13;;;24.50;;
19187;SDS011;9726;52.198;8.792;2024-03-06T05:22:20;64.83;;;26.43;;
19187;SDS011;9726;52.198;8.792;2024-03-06T05:25:05;50.03;;;25.80;;
19187;SDS011;9726;52.198;8.792;2024-03-06T05:27:54;56.27;;;26.57;;
19187;SDS011;9726;52.198;8.792;2024-03-06T05:30:39;52.23;;;25.43;;
19187;SDS011;9726;52.198;8.792;2024-03-06T05:33:23;50.93;;;25.60;;
19187;SDS011;9726;52.198;8.792;2024-03-06T05:36:07;52.93;;;26.10;;
19187;SDS011;9726;52.198;8.792;2024-03-06T05:38:53;51.83;;;26.23;;
19187;SDS011;9726;52.198;8.792;2024-03-06T05:41:38;50.60;;;27.40;;
19187;SDS011;9726;52.198;8.792;2024-03-06T05:44:26;52.90;;;25.47;;
19187;SDS011;9726;52.198;8.792;2024-03-06T05:47:10;51.07;;;26.90;;
19187;SDS011;9726;52.198;8.792;2024-03-06T05:49:55;54.90;;;31.60;;
19187;SDS011;9726;52.198;8.792;2024-03-06T05:52:40;49.13;;;26.60;;
19187;SDS011;9726;52.198;8.792;2024-03-06T05:55:25;55.07;;;25.03;;
19187;SDS011;9726;52.198;8.792;2024-03-06T05:58:10;53.00;;;28.33;;
19187;SDS011;9726;52.198;8.792;2024-03-06T06:00:41;53.50;;;27.17;;
19187;SDS011;9726;52.198;8.792;2024-03-06T06:03:09;66.87;;;27.40;;
19187;SDS011;9726;52.198;8.792;2024-03-06T06:05:39;47.37;;;26.90;;
19187;SDS011;9726;52.198;8.792;2024-03-06T06:08:06;57.77;;;28.27;;
19187;SDS011;9726;52.198;8.792;2024-03-06T06:10:33;52.40;;;27.20;;
19187;SDS011;9726;52.198;8.792;2024-03-06T06:13:01;55.80;;;27.20;;
19187;SDS011;9726;52.198;8.792;2024-03-06T06:15:31;57.57;;;28.03;;
19187;SDS011;9726;52.198;8.792;2024-03-06T06:17:58;55.50;;;27.50;;
19187;SDS011;9726;52.198;8.792;2024-03-06T06:20:26;53.40;;;26.90;;
19187;SDS011;9726;52.198;8.792;2024-03-06T06:22:53;62.20;;;27.83;;
19187;SDS011;9726;52.198;8.792;2024-03-06T06:25:20;56.07;;;27.77;;
19187;SDS011;9726;52.198;8.792;2024-03-06T06:27:48;53.47;;;28.57;;
19187;SDS011;9726;52.198;8.792;2024-03-06T06:30:16;52.57;;;27.33;;
19187;SDS011;9726;52.198;8.792;2024-03-06T06:32:43;66.40;;;33.30;;
19187;SDS011;9726;52.198;8.792;2024-03-06T06:35:11;53.40;;;28.87;;
19187;SDS011;9726;52.198;8.792;2024-03-06T06:37:40;52.50;;;29.57;;
19187;SDS011;9726;52.198;8.792;2024-03-06T06:40:08;59.00;;;28.47;;
19187;SDS011;9726;52.198;8.792;2024-03-06T06:42:36;60.87;;;28.93;;
19187;SDS011;9726;52.198;8.792;2024-03-06T06:45:04;63.00;;;28.93;;
19187;SDS011;9726;52.198;8.792;2024-03-06T06:47:36;62.17;;;27.70;;
19187;SDS011;9726;52.198;8.792;2024-03-06T06:50:03;62.83;;;30.10;;
19187;SDS011;9726;52.198;8.792;2024-03-06T06:52:32;67.17;;;29.70;;
19187;SDS011;9726;52.198;8.792;2024-03-06T06:55:01;51.70;;;27.13;;
19187;SDS011;9726;52.198;8.792;2024-03-06T06:57:29;54.30;;;29.20;;
19187;SDS011;9726;52.198;8.792;2024-03-06T06:59:57;59.93;;;28.20;;
19187;SDS011;9726;52.198;8.792;2024-03-06T07:02:25;67.00;;;29.77;;
19187;SDS011;9726;52.198;8.792;2024-03-06T07:04:52;51.57;;;27.80;;
19187;SDS011;9726;52.198;8.792;2024-03-06T07:07:19;57.63;;;28.83;;
19187;SDS011;9726;52.198;8.792;2024-03-06T07:09:46;61.37;;;30.63;;
19187;SDS011;9726;52.198;8.792;2024-03-06T07:12:13;61.87;;;28.63;;
19187;SDS011;9726;52.198;8.792;2024-03-06T07:14:40;72.97;;;30.47;;
19187;SDS011;9726;52.198;8.792;2024-03-06T07:17:07;56.83;;;29.73;;
19187;SDS011;9726;52.198;8.792;2024-03-06T07:19:35;65.67;;;28.30;;
19187;SDS011;9726;52.198;8.792;2024-03-06T07:22:02;63.77;;;28.87;;
19187;SDS011;9726;52.198;8.792;2024-03-06T07:24:30;65.93;;;29.93;;
19187;SDS011;9726;52.198;8.792;2024-03-06T07:26:58;61.20;;;30.37;;
19187;SDS011;9726;52.198;8.792;2024-03-06T07:29:27;67.80;;;30.47;;
19187;SDS011;9726;52.198;8.792;2024-03-06T07:31:55;59.97;;;29.17;;
19187;SDS011;9726;52.198;8.792;2024-03-06T07:34:22;58.97;;;27.60;;
19187;SDS011;9726;52.198;8.792;2024-03-06T07:36:49;54.63;;;28.97;;
19187;SDS011;9726;52.198;8.792;2024-03-06T07:39:16;61.97;;;29.33;;
19187;SDS011;9726;52.198;8.792;2024-03-06T07:41:45;64.17;;;29.27;;
19187;SDS011;9726;52.198;8.792;2024-03-06T07:44:13;59.67;;;28.13;;
19187;SDS011;9726;52.198;8.792;2024-03-06T07:46:40;57.03;;;28.77;;
19187;SDS011;9726;52.198;8.792;2024-03-06T07:49:07;58.37;;;28.77;;
19187;SDS011;9726;52.198;8.792;2024-03-06T07:51:34;61.97;;;29.50;;
19187;SDS011;9726;52.198;8.792;2024-03-06T07:54:04;53.40;;;28.20;;
19187;SDS011;9726;52.198;8.792;2024-03-06T07:56:31;60.37;;;29.90;;
19187;SDS011;9726;52.198;8.792;2024-03-06T07:58:59;60.43;;;29.27;;
19187;SDS011;9726;52.198;8.792;2024-03-06T08:01:27;60.50;;;30.87;;
19187;SDS011;9726;52.198;8.792;2024-03-06T08:03:58;64.77;;;30.40;;
19187;SDS011;9726;52.198;8.792;2024-03-06T08:06:26;51.70;;;27.83;;
19187;SDS011;9726;52.198;8.792;2024-03-06T08:08:55;63.43;;;30.43;;
19187;SDS011;9726;52.198;8.792;2024-03-06T08:11:26;68.47;;;28.50;;
19187;SDS011;9726;52.198;8.792;2024-03-06T08:13:57;58.63;;;28.07;;
19187;SDS011;9726;52.198;8.792;2024-03-06T08:16:24;63.10;;;28.07;;
19187;SDS011;9726;52.198;8.792;2024-03-06T08:18:51;57.93;;;28.90;;
19187;SDS011;9726;52.198;8.792;2024-03-06T08:21:18;65.67;;;30.63;;
19187;SDS011;9726;52.198;8.792;2024-03-06T08:23:49;62.50;;;29.03;;
19187;SDS011;9726;52.198;8.792;2024-03-06T08:26:17;53.60;;;28.53;;
19187;SDS011;9726;52.198;8.792;2024-03-06T08:28:45;59.03;;;29.30;;
19187;SDS011;9726;52.198;8.792;2024-03-06T08:31:16;65.17;;;29.97;;
19187;SDS011;9726;52.198;8.792;2024-03-06T08:33:43;69.60;;;29.50;;
19187;SDS011;9726;52.198;8.792;2024-03-06T08:36:11;68.23;;;29.73;;
19187;SDS011;9726;52.198;8.792;2024-03-06T08:38:40;68.53;;;30.63;;
19187;SDS011;9726;52.198;8.792;2024-03-06T08:41:10;57.27;;;30.23;;
19187;SDS011;9726;52.198;8.792;2024-03-06T08:43:37;75.47;;;36.88;;
19187;SDS011;9726;52.198;8.792;2024-03-06T08:46:05;65.73;;;31.10;;
19187;SDS011;9726;52.198;8.792;2024-03-06T08:48:33;76.83;;;32.60;;
19187;SDS011;9726;52.198;8.792;2024-03-06T08:51:00;65.10;;;30.40;;
19187;SDS011;9726;52.198;8.792;2024-03-06T08:53:28;64.63;;;30.63;;
19187;SDS011;9726;52.198;8.792;2024-03-06T08:55:55;62.30;;;29.03;;
19187;SDS011;9726;52.198;8.792;2024-03-06T08:58:22;65.35;;;35.05;;
19187;SDS011;9726;52.198;8.792;2024-03-06T09:00:49;61.07;;;32.57;;
19187;SDS011;9726;52.198;8.792;2024-03-06T09:03:16;62.03;;;27.93;;
19187;SDS011;9726;52.198;8.792;2024-03-06T09:05:43;55.93;;;29.03;;
19187;SDS011;9726;52.198;8.792;2024-03-06T09:08:10;69.80;;;31.33;;
19187;SDS011;9726;52.198;8.792;2024-03-06T09:10:38;59.40;;;29.07;;
19187;SDS011;9726;52.198;8.792;2024-03-06T09:13:05;60.47;;;28.57;;
19187;SDS011;9726;52.198;8.792;2024-03-06T09:15:34;53.63;;;28.90;;
19187;SDS011;9726;52.198;8.792;2024-03-06T09:18:01;68.13;;;28.97;;
19187;SDS011;9726;52.198;8.792;2024-03-06T09:20:29;67.83;;;30.03;;
19187;SDS011;9726;52.198;8.792;2024-03-06T09:22:58;66.33;;;29.30;;
19187;SDS011;9726;52.198;8.792;2024-03-06T09:25:26;65.63;;;30.67;;
19187;SDS011;9726;52.198;8.792;2024-03-06T09:27:56;53.73;;;29.17;;
19187;SDS011;9726;52.198;8.792;2024-03-06T09:30:23;57.57;;;30.20;;
19187;SDS011;9726;52.198;8.792;2024-03-06T09:32:51;58.90;;;28.77;;
19187;SDS011;9726;52.198;8.792;2024-03-06T09:35:18;70.80;;;30.37;;
19187;SDS011;9726;52.198;8.792;2024-03-06T09:37:46;62.03;;;28.57;;
19187;SDS011;9726;52.198;8.792;2024-03-06T09:40:20;66.20;;;30.63;;
19187;SDS011;9726;52.198;8.792;2024-03-06T09:42:51;60.40;;;29.80;;
19187;SDS011;9726;52.198;8.792;2024-03-06T09:45:19;65.93;;;31.23;;
19187;SDS011;9726;52.198;8.792;2024-03-06T09:47:46;64.83;;;29.50;;
19187;SDS011;9726;52.198;8.792;2024-03-06T09:50:17;66.03;;;31.73;;
19187;SDS011;9726;52.198;8.792;2024-03-06T09:52:50;61.60;;;29.67;;
19187;SDS011;9726;52.198;8.792;2024-03-06T09:55:19;66.80;;;31.27;;
19187;SDS011;9726;52.198;8.792;2024-03-06T09:57:47;64.03;;;31.83;;
19187;SDS011;9726;52.198;8.792;2024-03-06T10:00:16;71.90;;;29.77;;
19187;SDS011;9726;52.198;8.792;2024-03-06T10:03:20;55.33;;;28.40;;
19187;SDS011;9726;52.198;8.792;2024-03-06T10:05:40;62.90;;;29.80;;
19187;SDS011;9726;52.198;8.792;2024-03-06T10:08:09;59.97;;;30.43;;
19187;SDS011;9726;52.198;8.792;2024-03-06T10:10:37;59.07;;;29.33;;
19187;SDS011;9726;52.198;8.792;2024-03-06T10:13:04;63.00;;;30.93;;
19187;SDS011;9726;52.198;8.792;2024-03-06T10:15:31;61.80;;;28.97;;
19187;SDS011;9726;52.198;8.792;2024-03-06T10:20:44;63.67;;;30.00;;
19187;SDS011;9726;52.198;8.792;2024-03-06T10:23:12;60.83;;;29.67;;
19187;SDS011;9726;52.198;8.792;2024-03-06T10:25:39;62.27;;;30.07;;
19187;SDS011;9726;52.198;8.792;2024-03-06T10:28:10;68.10;;;29.73;;
19187;SDS011;9726;52.198;8.792;2024-03-06T10:30:39;58.97;;;29.53;;
19187;SDS011;9726;52.198;8.792;2024-03-06T10:33:09;56.53;;;28.23;;
19187;SDS011;9726;52.198;8.792;2024-03-06T10:35:37;60.83;;;29.03;;
19187;SDS011;9726;52.198;8.792;2024-03-06T10:38:06;62.80;;;29.97;;
19187;SDS011;9726;52.198;8.792;2024-03-06T10:40:35;57.67;;;30.77;;
19187;SDS011;9726;52.198;8.792;2024-03-06T10:43:04;59.37;;;28.43;;
19187;SDS011;9726;52.198;8.792;2024-03-06T10:48:22;56.07;;;26.90;;
19187;SDS011;9726;52.198;8.792;2024-03-06T10:50:51;67.53;;;28.90;;
19187;SDS011;9726;52.198;8.792;2024-03-06T10:53:19;58.50;;;28.93;;
19187;SDS011;9726;52.198;8.792;2024-03-06T10:55:50;60.80;;;31.10;;
19187;SDS011;9726;52.198;8.792;2024-03-06T10:58:18;56.77;;;28.93;;
19187;SDS011;9726;52.198;8.792;2024-03-06T11:00:47;59.13;;;29.50;;
19187;SDS011;9726;52.198;8.792;2024-03-06T11:03:15;61.33;;;30.10;;
19187;SDS011;9726;52.198;8.792;2024-03-06T11:05:43;62.70;;;29.27;;
19187;SDS011;9726;52.198;8.792;2024-03-06T11:08:14;70.60;;;30.10;;
19187;SDS011;9726;52.198;8.792;2024-03-06T11:10:43;61.57;;;28.80;;
19187;SDS011;9726;52.198;8.792;2024-03-06T11:15:47;55.37;;;28.17;;
19187;SDS011;9726;52.198;8.792;2024-03-06T11:21:41;62.60;;;29.03;;
19187;SDS011;9726;52.198;8.792;2024-03-06T11:27:04;52.43;;;26.10;;
19187;SDS011;9726;52.198;8.792;2024-03-06T11:30:10;54.70;;;28.47;;
19187;SDS011;9726;52.198;8.792;2024-03-06T11:32:37;60.03;;;29.77;;
19187;SDS011;9726;52.198;8.792;2024-03-06T11:35:23;61.60;;;29.33;;
19187;SDS011;9726;52.198;8.792;2024-03-06T11:37:51;60.27;;;31.13;;
19187;SDS011;9726;52.198;8.792;2024-03-06T11:40:24;55.93;;;26.80;;
19187;SDS011;9726;52.198;8.792;2024-03-06T11:42:52;54.87;;;28.23;;
19187;SDS011;9726;52.198;8.792;2024-03-06T11:45:19;57.23;;;26.80;;
19187;SDS011;9726;52.198;8.792;2024-03-06T11:47:58;60.70;;;30.67;;
19187;SDS011;9726;52.198;8.792;2024-03-06T11:50:30;65.47;;;28.67;;
19187;SDS011;9726;52.198;8.792;2024-03-06T11:53:00;60.70;;;28.90;;
19187;SDS011;9726;52.198;8.792;2024-03-06T11:55:27;63.70;;;29.90;;
19187;SDS011;9726;52.198;8.792;2024-03-06T11:57:54;60.93;;;30.17;;
19187;SDS011;9726;52.198;8.792;2024-03-06T12:00:22;57.57;;;29.00;;
19187;SDS011;9726;52.198;8.792;2024-03-06T12:02:50;56.47;;;29.17;;
19187;SDS011;9726;52.198;8.792;2024-03-06T12:05:19;61.50;;;27.83;;
19187;SDS011;9726;52.198;8.792;2024-03-06T12:07:50;57.17;;;28.73;;
19187;SDS011;9726;52.198;8.792;2024-03-06T12:10:19;64.00;;;29.97;;
19187;SDS011;9726;52.198;8.792;2024-03-06T12:12:49;58.57;;;29.20;;
19187;SDS011;9726;52.198;8.792;2024-03-06T12:15:16;58.47;;;28.93;;
19187;SDS011;9726;52.198;8.792;2024-03-06T12:17:47;58.93;;;29.30;;
19187;SDS011;9726;52.198;8.792;2024-03-06T12:20:16;57.97;;;30.33;;
19187;SDS011;9726;52.198;8.792;2024-03-06T12:22:48;62.37;;;29.60;;
19187;SDS011;9726;52.198;8.792;2024-03-06T12:27:47;58.90;;;30.03;;
19187;SDS011;9726;52.198;8.792;2024-03-06T12:30:21;59.33;;;29.43;;
19187;SDS011;9726;52.198;8.792;2024-03-06T12:32:56;58.43;;;29.00;;
19187;SDS011;9726;52.198;8.792;2024-03-06T12:35:24;57.13;;;30.37;;
19187;SDS011;9726;52.198;8.792;2024-03-06T12:38:12;63.00;;;31.60;;
19187;SDS011;9726;52.198;8.792;2024-03-06T12:40:42;62.40;;;31.03;;
19187;SDS011;9726;52.198;8.792;2024-03-06T12:43:09;59.70;;;30.80;;
19187;SDS011;9726;52.198;8.792;2024-03-06T12:45:36;60.77;;;29.30;;
19187;SDS011;9726;52.198;8.792;2024-03-06T12:48:04;58.23;;;28.33;;
19187;SDS011;9726;52.198;8.792;2024-03-06T12:50:33;60.93;;;30.10;;
19187;SDS011;9726;52.198;8.792;2024-03-06T12:53:00;62.77;;;30.63;;
19187;SDS011;9726;52.198;8.792;2024-03-06T12:55:30;59.47;;;30.60;;
19187;SDS011;9726;52.198;8.792;2024-03-06T12:58:01;66.23;;;29.97;;
19187;SDS011;9726;52.198;8.792;2024-03-06T13:00:40;65.87;;;30.20;;
19187;SDS011;9726;52.198;8.792;2024-03-06T13:03:07;62.53;;;30.67;;
19187;SDS011;9726;52.198;8.792;2024-03-06T13:05:41;64.07;;;32.43;;
19187;SDS011;9726;52.198;8.792;2024-03-06T13:08:10;66.27;;;32.70;;
19187;SDS011;9726;52.198;8.792;2024-03-06T13:10:41;63.77;;;30.50;;
19187;SDS011;9726;52.198;8.792;2024-03-06T13:13:09;53.67;;;27.77;;
19187;SDS011;9726;52.198;8.792;2024-03-06T13:15:36;60.63;;;29.77;;
19187;SDS011;9726;52.198;8.792;2024-03-06T13:18:06;56.57;;;27.60;;
19187;SDS011;9726;52.198;8.792;2024-03-06T13:20:33;67.80;;;30.47;;
19187;SDS011;9726;52.198;8.792;2024-03-06T13:23:00;56.23;;;29.67;;
19187;SDS011;9726;52.198;8.792;2024-03-06T13:25:28;66.40;;;30.57;;
19187;SDS011;9726;52.198;8.792;2024-03-06T13:27:55;55.80;;;29.20;;
19187;SDS011;9726;52.198;8.792;2024-03-06T13:30:22;58.13;;;28.67;;
19187;SDS011;9726;52.198;8.792;2024-03-06T13:32:51;52.27;;;28.97;;
19187;SDS011;9726;52.198;8.792;2024-03-06T13:35:18;63.97;;;29.13;;
19187;SDS011;9726;52.198;8.792;2024-03-06T13:37:45;59.40;;;28.63;;
19187;SDS011;9726;52.198;8.792;2024-03-06T13:40:13;58.73;;;28.73;;
19187;SDS011;9726;52.198;8.792;2024-03-06T13:42:40;54.83;;;28.87;;
19187;SDS011;9726;52.198;8.792;2024-03-06T13:45:08;61.40;;;29.43;;
19187;SDS011;9726;52.198;8.792;2024-03-06T13:47:39;59.83;;;29.93;;
19187;SDS011;9726;52.198;8.792;2024-03-06T13:50:08;47.63;;;26.23;;
19187;SDS011;9726;52.198;8.792;2024-03-06T13:52:36;56.87;;;27.10;;
19187;SDS011;9726;52.198;8.792;2024-03-06T13:55:03;54.90;;;27.83;;
19187;SDS011;9726;52.198;8.792;2024-03-06T13:57:32;55.57;;;27.47;;
19187;SDS011;9726;52.198;8.792;2024-03-06T14:00:03;56.33;;;27.53;;
19187;SDS011;9726;52.198;8.792;2024-03-06T14:02:37;58.43;;;30.30;;
19187;SDS011;9726;52.198;8.792;2024-03-06T14:05:04;58.90;;;28.23;;
19187;SDS011;9726;52.198;8.792;2024-03-06T14:07:33;59.33;;;30.97;;
19187;SDS011;9726;52.198;8.792;2024-03-06T14:10:01;59.23;;;29.10;;
19187;SDS011;9726;52.198;8.792;2024-03-06T14:12:32;51.77;;;27.57;;
19187;SDS011;9726;52.198;8.792;2024-03-06T14:14:59;64.43;;;28.37;;
19187;SDS011;9726;52.198;8.792;2024-03-06T14:17:27;53.23;;;28.03;;
19187;SDS011;9726;52.198;8.792;2024-03-06T14:19:54;55.63;;;26.50;;
19187;SDS011;9726;52.198;8.792;2024-03-06T14:22:21;49.13;;;27.77;;
19187;SDS011;9726;52.198;8.792;2024-03-06T14:24:48;57.43;;;26.83;;
19187;SDS011;9726;52.198;8.792;2024-03-06T14:27:15;50.87;;;27.13;;
19187;SDS011;9726;52.198;8.792;2024-03-06T14:29:43;57.30;;;27.87;;
19187;SDS011;9726;52.198;8.792;2024-03-06T14:32:11;55.50;;;27.97;;
19187;SDS011;9726;52.198;8.792;2024-03-06T14:34:45;57.93;;;26.73;;
19187;SDS011;9726;52.198;8.792;2024-03-06T14:37:12;52.53;;;27.87;;
19187;SDS011;9726;52.198;8.792;2024-03-06T14:39:39;51.57;;;26.97;;
19187;SDS011;9726;52.198;8.792;2024-03-06T14:42:09;53.73;;;27.77;;
19187;SDS011;9726;52.198;8.792;2024-03-06T14:44:37;52.60;;;28.70;;
19187;SDS011;9726;52.198;8.792;2024-03-06T14:47:04;56.87;;;27.33;;
19187;SDS011;9726;52.198;8.792;2024-03-06T14:49:33;52.20;;;27.27;;
19187;SDS011;9726;52.198;8.792;2024-03-06T14:52:01;48.30;;;26.30;;
19187;SDS011;9726;52.198;8.792;2024-03-06T14:54:32;54.97;;;25.43;;
19187;SDS011;9726;52.198;8.792;2024-03-06T14:57:00;55.43;;;27.87;;
19187;SDS011;9726;52.198;8.792;2024-03-06T14:59:28;53.80;;;26.67;;
19187;SDS011;9726;52.198;8.792;2024-03-06T15:01:55;51.67;;;27.23;;